Portada
METAR-TAF:

METAR-TAF

Aeropuertos :

Acajutla, El Salvador

latitud: 13-34N, longitud: 089-50W, altitud: 15 m

Observación

El informe se hizo hace 39 minutos, a las 19:50 UTC
Viento 6 kt del sur
Temperatura 33°C
Humedad 53%
Presión 1008 hPa
Visibilidad 10 km o más
sin nubes por debajo de 1500 m y sin presencia de cumulonimbus.

METAR: MSAC 201950Z 19006KT CAVOK 33/22 Q1008 A2978

Hora: 14:29 (20:29 UTC)


TAF: falta

Observaciones y pronósticos meteorológicos de más de 4000 aeropuertos (mensajes METAR y TAF).

Los puntos amarillos y rojos representan las estaciones disponibles.

Ponga el ratón en el punto deseado para ver el nombre de la estación.

Haga clic para ver las observaciones y los pronósticos meteorológicos.

Para cambiar el mapa : haga clic en los botones verdes con una cruz de color negro para hacer un zoom, en el botón verde con un guión para alejar o en las flechas verdes para mapas adyacentes.


METAR-TAF: